sensor_id;sensor_type;location;lat;lon;timestamp;pressure;altitude;pressure_sealevel;temperature;humidity
62510;BME280;48558;48.242;11.654;2022-09-09T12:36:39;96086.03;;;24.21;91.68
62510;BME280;48558;48.242;11.654;2022-09-09T12:44:30;96082.44;;;24.21;92.49
62510;BME280;48558;48.242;11.654;2022-09-09T12:47:02;96085.84;;;24.19;92.53
62510;BME280;48558;48.242;11.654;2022-09-09T12:49:36;96055.31;;;24.18;94.71
62510;BME280;48558;48.242;11.654;2022-09-09T12:56:06;96073.88;;;24.57;89.69
62510;BME280;48558;48.242;11.654;2022-09-09T13:01:58;96067.28;;;24.47;90.06
62510;BME280;48558;48.242;11.654;2022-09-09T13:06:17;96058.41;;;24.43;90.65
62510;BME280;48558;48.242;11.654;2022-09-09T13:10:44;96058.78;;;24.39;91.56
62510;BME280;48558;48.242;11.654;2022-09-09T13:15:24;96039.41;;;24.36;91.55
62510;BME280;48558;48.242;11.654;2022-09-09T13:19:52;96042.53;;;24.24;92.14
62510;BME280;48558;48.242;11.654;2022-09-09T13:24:23;96041.63;;;24.30;92.31
62510;BME280;48558;48.242;11.654;2022-09-09T13:31:36;96033.44;;;24.84;89.69
62510;BME280;48558;48.242;11.654;2022-09-09T13:50:25;96002.50;;;22.49;74.86
62510;BME280;48558;48.242;11.654;2022-09-09T13:54:38;96003.00;;;22.81;75.26
62510;BME280;48558;48.242;11.654;2022-09-09T13:58:53;95992.63;;;22.56;75.76
62510;BME280;48558;48.242;11.654;2022-09-09T14:03:06;95988.19;;;22.06;79.21
62510;BME280;48558;48.242;11.654;2022-09-09T14:07:20;95993.84;;;21.46;77.45
62510;BME280;48558;48.242;11.654;2022-09-09T14:11:33;95992.66;;;21.28;81.75
62510;BME280;48558;48.242;11.654;2022-09-09T14:15:48;95986.69;;;20.93;83.66
62510;BME280;48558;48.242;11.654;2022-09-09T14:20:05;96002.72;;;20.53;83.64
62510;BME280;48558;48.242;11.654;2022-09-09T14:24:21;96002.69;;;20.40;86.18
62510;BME280;48558;48.242;11.654;2022-09-09T14:28:35;96005.06;;;20.17;88.08
62510;BME280;48558;48.242;11.654;2022-09-09T14:33:07;96003.13;;;19.93;91.51
62510;BME280;48558;48.242;11.654;2022-09-09T14:37:20;96001.63;;;19.74;91.93
62510;BME280;48558;48.242;11.654;2022-09-09T14:41:33;96010.56;;;19.91;90.44
62510;BME280;48558;48.242;11.654;2022-09-09T14:45:46;96014.94;;;19.86;90.19
62510;BME280;48558;48.242;11.654;2022-09-09T14:50:00;96027.81;;;19.95;91.05
62510;BME280;48558;48.242;11.654;2022-09-09T14:54:25;96030.94;;;19.91;91.88
62510;BME280;48558;48.242;11.654;2022-09-09T14:58:38;96034.81;;;19.88;94.14
62510;BME280;48558;48.242;11.654;2022-09-09T15:02:52;96035.41;;;19.44;96.30
62510;BME280;48558;48.242;11.654;2022-09-09T15:07:16;96020.19;;;19.34;96.07
62510;BME280;48558;48.242;11.654;2022-09-09T15:11:35;96024.56;;;19.11;95.55
62510;BME280;48558;48.242;11.654;2022-09-09T15:15:51;96028.44;;;19.02;100.00
62510;BME280;48558;48.242;11.654;2022-09-09T15:20:08;96009.78;;;18.86;98.79
62510;BME280;48558;48.242;11.654;2022-09-09T15:24:21;96016.50;;;19.02;100.00
62510;BME280;48558;48.242;11.654;2022-09-09T15:28:35;96009.75;;;19.34;99.18
62510;BME280;48558;48.242;11.654;2022-09-09T15:32:50;96007.38;;;19.44;99.28
62510;BME280;48558;48.242;11.654;2022-09-09T15:37:05;96006.31;;;19.84;95.79
62510;BME280;48558;48.242;11.654;2022-09-09T15:41:21;95998.78;;;19.92;94.13
62510;BME280;48558;48.242;11.654;2022-09-09T15:45:36;95998.34;;;20.70;86.17
62510;BME280;48558;48.242;11.654;2022-09-09T15:49:49;95991.81;;;21.20;83.35
62510;BME280;48558;48.242;11.654;2022-09-09T15:54:03;95999.16;;;21.10;79.68
62510;BME280;48558;48.242;11.654;2022-09-09T15:58:17;95982.47;;;20.73;79.23
62510;BME280;48558;48.242;11.654;2022-09-09T16:02:30;95982.69;;;20.75;79.03
62510;BME280;48558;48.242;11.654;2022-09-09T16:06:43;95979.25;;;20.06;80.66
62510;BME280;48558;48.242;11.654;2022-09-09T16:15:23;95977.66;;;19.54;86.86
62510;BME280;48558;48.242;11.654;2022-09-09T16:19:36;95974.78;;;19.41;85.25
62510;BME280;48558;48.242;11.654;2022-09-09T16:23:53;95972.44;;;19.02;89.77
62510;BME280;48558;48.242;11.654;2022-09-09T16:28:06;95972.69;;;18.80;90.43
62510;BME280;48558;48.242;11.654;2022-09-09T16:32:19;95967.41;;;18.77;91.56
62510;BME280;48558;48.242;11.654;2022-09-09T16:36:35;95972.22;;;19.00;90.79
62510;BME280;48558;48.242;11.654;2022-09-09T16:40:48;95960.69;;;19.28;89.32
62510;BME280;48558;48.242;11.654;2022-09-09T16:45:03;95950.19;;;19.53;86.49
62510;BME280;48558;48.242;11.654;2022-09-09T16:49:16;95946.66;;;19.28;89.13
62510;BME280;48558;48.242;11.654;2022-09-09T16:53:40;95958.47;;;19.21;88.15
62510;BME280;48558;48.242;11.654;2022-09-09T16:57:55;95954.31;;;18.85;91.32
62510;BME280;48558;48.242;11.654;2022-09-09T17:02:08;95967.66;;;18.49;94.03
62510;BME280;48558;48.242;11.654;2022-09-09T17:06:22;95978.06;;;18.19;94.63
62510;BME280;48558;48.242;11.654;2022-09-09T17:10:40;95979.81;;;17.92;96.79
62510;BME280;48558;48.242;11.654;2022-09-09T17:14:54;95976.44;;;17.64;97.60
62510;BME280;48558;48.242;11.654;2022-09-09T17:19:09;95985.72;;;17.37;100.00
62510;BME280;48558;48.242;11.654;2022-09-09T17:23:22;95980.00;;;17.01;100.00
62510;BME280;48558;48.242;11.654;2022-09-09T17:27:37;95991.78;;;16.72;100.00
62510;BME280;48558;48.242;11.654;2022-09-09T17:31:50;95978.13;;;16.58;100.00
62510;BME280;48558;48.242;11.654;2022-09-09T17:40:24;95996.59;;;16.33;100.00
62510;BME280;48558;48.242;11.654;2022-09-09T17:44:37;95991.81;;;16.22;100.00
62510;BME280;48558;48.242;11.654;2022-09-09T17:48:55;95990.03;;;16.03;100.00
62510;BME280;48558;48.242;11.654;2022-09-09T17:53:10;95993.31;;;15.96;100.00
62510;BME280;48558;48.242;11.654;2022-09-09T17:57:33;96003.69;;;15.84;100.00
62510;BME280;48558;48.242;11.654;2022-09-09T18:01:47;96004.69;;;15.81;100.00
62510;BME280;48558;48.242;11.654;2022-09-09T18:06:04;96000.09;;;15.56;100.00
62510;BME280;48558;48.242;11.654;2022-09-09T18:10:18;95997.25;;;15.39;100.00
62510;BME280;48558;48.242;11.654;2022-09-09T18:14:31;96006.56;;;15.20;100.00
62510;BME280;48558;48.242;11.654;2022-09-09T18:18:45;96017.41;;;15.18;100.00
62510;BME280;48558;48.242;11.654;2022-09-09T18:22:58;96008.28;;;15.12;100.00
62510;BME280;48558;48.242;11.654;2022-09-09T18:27:11;96012.25;;;14.94;100.00
62510;BME280;48558;48.242;11.654;2022-09-09T18:31:26;96028.06;;;14.77;100.00
62510;BME280;48558;48.242;11.654;2022-09-09T18:35:40;96031.78;;;14.63;100.00
62510;BME280;48558;48.242;11.654;2022-09-09T18:39:53;96044.09;;;14.51;100.00
62510;BME280;48558;48.242;11.654;2022-09-09T18:44:11;96048.59;;;14.43;100.00
62510;BME280;48558;48.242;11.654;2022-09-09T18:48:25;96051.31;;;14.37;100.00
62510;BME280;48558;48.242;11.654;2022-09-09T18:52:38;96057.91;;;14.40;100.00
62510;BME280;48558;48.242;11.654;2022-09-09T18:56:51;96053.13;;;14.40;100.00
62510;BME280;48558;48.242;11.654;2022-09-09T19:01:11;96057.84;;;14.34;100.00
62510;BME280;48558;48.242;11.654;2022-09-09T19:05:24;96062.44;;;14.37;100.00
62510;BME280;48558;48.242;11.654;2022-09-09T19:09:39;96089.00;;;14.44;100.00
62510;BME280;48558;48.242;11.654;2022-09-09T19:18:06;96147.84;;;14.99;100.00
62510;BME280;48558;48.242;11.654;2022-09-09T19:22:19;96161.34;;;15.48;100.00
62510;BME280;48558;48.242;11.654;2022-09-09T19:26:35;96137.91;;;15.77;100.00
62510;BME280;48558;48.242;11.654;2022-09-09T19:40:06;96147.22;;;15.57;100.00
62510;BME280;48558;48.242;11.654;2022-09-09T19:44:19;96153.50;;;15.47;100.00
62510;BME280;48558;48.242;11.654;2022-09-09T19:48:33;96152.47;;;15.13;100.00
62510;BME280;48558;48.242;11.654;2022-09-09T19:52:47;96151.00;;;14.81;100.00
62510;BME280;48558;48.242;11.654;2022-09-09T19:57:00;96156.69;;;14.66;100.00
62510;BME280;48558;48.242;11.654;2022-09-09T20:01:17;96158.00;;;14.45;100.00
62510;BME280;48558;48.242;11.654;2022-09-09T20:05:30;96159.53;;;14.20;100.00
62510;BME280;48558;48.242;11.654;2022-09-09T20:09:43;96160.34;;;14.01;100.00
62510;BME280;48558;48.242;11.654;2022-09-09T20:13:55;96168.03;;;13.91;100.00
62510;BME280;48558;48.242;11.654;2022-09-09T20:18:08;96166.25;;;13.88;100.00
62510;BME280;48558;48.242;11.654;2022-09-09T20:22:20;96155.84;;;13.63;100.00
62510;BME280;48558;48.242;11.654;2022-09-09T20:26:34;96150.38;;;13.48;100.00
62510;BME280;48558;48.242;11.654;2022-09-09T20:30:48;96158.63;;;13.43;100.00
62510;BME280;48558;48.242;11.654;2022-09-09T20:35:04;96152.94;;;13.32;100.00
62510;BME280;48558;48.242;11.654;2022-09-09T20:39:19;96156.03;;;13.19;100.00
62510;BME280;48558;48.242;11.654;2022-09-09T20:43:31;96151.66;;;13.13;100.00
62510;BME280;48558;48.242;11.654;2022-09-09T20:47:44;96137.69;;;13.07;100.00
62510;BME280;48558;48.242;11.654;2022-09-09T20:51:57;96146.50;;;13.06;100.00
62510;BME280;48558;48.242;11.654;2022-09-09T20:56:11;96154.81;;;13.06;100.00
62510;BME280;48558;48.242;11.654;2022-09-09T21:00:23;96140.88;;;12.85;100.00
62510;BME280;48558;48.242;11.654;2022-09-09T21:04:36;96147.03;;;12.75;100.00
62510;BME280;48558;48.242;11.654;2022-09-09T21:08:49;96149.88;;;12.80;100.00
62510;BME280;48558;48.242;11.654;2022-09-09T21:13:02;96153.88;;;12.94;100.00
62510;BME280;48558;48.242;11.654;2022-09-09T21:17:14;96165.03;;;13.14;100.00
62510;BME280;48558;48.242;11.654;2022-09-09T21:21:28;96152.75;;;13.21;100.00
62510;BME280;48558;48.242;11.654;2022-09-09T21:25:41;96163.72;;;13.30;100.00
62510;BME280;48558;48.242;11.654;2022-09-09T21:29:53;96176.66;;;13.33;100.00
62510;BME280;48558;48.242;11.654;2022-09-09T21:34:06;96181.59;;;13.43;100.00
62510;BME280;48558;48.242;11.654;2022-09-09T21:38:22;96199.50;;;13.62;100.00
62510;BME280;48558;48.242;11.654;2022-09-09T21:42:35;96197.66;;;13.74;100.00
62510;BME280;48558;48.242;11.654;2022-09-09T21:46:48;96198.81;;;13.88;100.00
62510;BME280;48558;48.242;11.654;2022-09-09T21:51:06;96197.88;;;14.16;100.00
62510;BME280;48558;48.242;11.654;2022-09-09T21:55:18;96198.25;;;14.50;100.00
62510;BME280;48558;48.242;11.654;2022-09-09T21:59:31;96195.88;;;14.63;100.00
62510;BME280;48558;48.242;11.654;2022-09-09T22:03:45;96198.75;;;14.74;100.00
62510;BME280;48558;48.242;11.654;2022-09-09T22:07:57;96198.22;;;14.70;100.00
62510;BME280;48558;48.242;11.654;2022-09-09T22:12:10;96202.72;;;14.67;100.00
62510;BME280;48558;48.242;11.654;2022-09-09T22:16:23;96194.97;;;14.77;100.00
62510;BME280;48558;48.242;11.654;2022-09-09T22:20:41;96194.25;;;14.82;100.00
62510;BME280;48558;48.242;11.654;2022-09-09T22:24:54;96195.31;;;14.59;100.00
62510;BME280;48558;48.242;11.654;2022-09-09T22:29:06;96202.47;;;14.65;100.00
62510;BME280;48558;48.242;11.654;2022-09-09T22:33:20;96195.63;;;14.66;100.00
62510;BME280;48558;48.242;11.654;2022-09-09T22:37:32;96197.59;;;14.60;100.00
62510;BME280;48558;48.242;11.654;2022-09-09T22:41:45;96198.31;;;14.55;100.00
62510;BME280;48558;48.242;11.654;2022-09-09T22:46:09;96200.91;;;14.38;100.00
62510;BME280;48558;48.242;11.654;2022-09-09T22:50:22;96208.94;;;14.31;100.00
62510;BME280;48558;48.242;11.654;2022-09-09T22:54:35;96199.19;;;14.21;100.00
62510;BME280;48558;48.242;11.654;2022-09-09T22:58:54;96191.25;;;14.08;100.00
62510;BME280;48558;48.242;11.654;2022-09-09T23:03:07;96193.47;;;13.84;100.00
62510;BME280;48558;48.242;11.654;2022-09-09T23:07:19;96198.47;;;13.80;100.00
62510;BME280;48558;48.242;11.654;2022-09-09T23:11:35;96201.53;;;13.82;100.00
62510;BME280;48558;48.242;11.654;2022-09-09T23:15:48;96185.56;;;13.77;100.00
62510;BME280;48558;48.242;11.654;2022-09-09T23:20:01;96181.94;;;13.71;100.00
62510;BME280;48558;48.242;11.654;2022-09-09T23:24:15;96190.69;;;13.64;100.00
62510;BME280;48558;48.242;11.654;2022-09-09T23:28:30;96188.63;;;13.59;100.00
62510;BME280;48558;48.242;11.654;2022-09-09T23:32:43;96181.94;;;13.51;100.00
62510;BME280;48558;48.242;11.654;2022-09-09T23:36:58;96190.69;;;13.44;100.00
62510;BME280;48558;48.242;11.654;2022-09-09T23:41:13;96177.28;;;13.22;100.00
62510;BME280;48558;48.242;11.654;2022-09-09T23:45:26;96169.25;;;13.10;100.00
62510;BME280;48558;48.242;11.654;2022-09-09T23:49:39;96173.94;;;13.04;100.00
62510;BME280;48558;48.242;11.654;2022-09-09T23:53:53;96173.00;;;13.07;100.00
62510;BME280;48558;48.242;11.654;2022-09-09T23:58:08;96181.53;;;12.88;100.00
